Time;durP1;ratioP1;P1;durP2;ratioP2;P2;SDS_P1;SDS_P2;PMS_P1;PMS_P2;Temp;Humidity;BMP_temperature;BMP_pressure;BME280_temperature;BME280_humidity;BME280_pressure;Samples;Min_cycle;Max_cycle;Signal;HPM_P1;HPM_P2
2022/09/18 00:01:40;;;;;;;3.85;1.00;;;;;;;10.01;100.00;98709.91;4954333;28;20057;-93
2022/09/18 00:04:12;;;;;;;3.92;0.90;;;;;;;9.89;100.00;98708.25;4969268;28;20039;-91
2022/09/18 00:06:39;;;;;;;4.70;1.00;;;;;;;9.94;100.00;98713.44;4957892;28;20034;-94
2022/09/18 00:09:13;;;;;;;3.60;0.90;;;;;;;9.63;100.00;98697.16;4959600;28;20041;-94
2022/09/18 00:11:52;;;;;;;3.75;1.00;;;;;;;9.82;100.00;98696.16;4957521;28;20027;-94
2022/09/18 00:14:21;;;;;;;3.58;0.95;;;;;;;9.74;100.00;98690.13;4958472;28;20073;-93
2022/09/18 00:16:50;;;;;;;3.50;0.82;;;;;;;9.67;100.00;98696.25;4975119;28;20031;-93
2022/09/18 00:19:16;;;;;;;3.33;0.90;;;;;;;9.56;100.00;98678.97;4974726;28;20043;-92
2022/09/18 00:21:45;;;;;;;3.70;0.80;;;;;;;9.79;100.00;98697.94;4962674;28;20409;-94
2022/09/18 00:24:16;;;;;;;3.75;1.08;;;;;;;9.68;100.00;98698.84;4956198;28;20117;-93
2022/09/18 00:26:43;;;;;;;2.80;0.77;;;;;;;9.67;100.00;98691.06;4942924;28;20031;-93
2022/09/18 00:29:10;;;;;;;4.32;1.00;;;;;;;9.73;100.00;98691.03;4957242;28;20138;-94
2022/09/18 00:31:36;;;;;;;3.03;0.73;;;;;;;9.67;100.00;98691.06;4953744;28;21445;-94
2022/09/18 00:34:07;;;;;;;3.13;0.75;;;;;;;9.55;100.00;98692.00;4956958;28;20041;-94
2022/09/18 00:36:34;;;;;;;3.38;0.70;;;;;;;9.62;100.00;98690.25;4956871;28;20038;-94
2022/09/18 00:39:02;;;;;;;2.17;0.50;;;;;;;9.66;100.00;98689.31;4957540;28;20404;-93
2022/09/18 00:41:40;;;;;;;7.63;1.13;;;;;;;9.57;100.00;98691.13;4953591;28;20023;-94
2022/09/18 00:44:37;;;;;;;3.50;0.68;;;;;;;9.50;100.00;98686.81;4951182;28;20054;-93
2022/09/18 00:47:14;;;;;;;2.10;0.65;;;;;;;9.64;100.00;98698.91;4954344;28;20117;-95
2022/09/18 00:49:42;;;;;;;3.08;0.60;;;;;;;9.56;100.00;98698.94;4972672;28;20054;-94
2022/09/18 00:52:09;;;;;;;2.55;0.68;;;;;;;9.44;100.00;98684.25;4954475;28;20062;-92
2022/09/18 00:54:40;;;;;;;3.03;0.57;;;;;;;9.52;100.00;98698.09;4956457;28;20137;-92
2022/09/18 00:57:11;;;;;;;3.33;0.80;;;;;;;9.42;100.00;98682.53;4957381;28;20050;-94
2022/09/18 00:59:41;;;;;;;2.17;0.60;;;;;;;9.36;100.00;98679.06;4954229;28;20058;-94
2022/09/18 01:02:07;;;;;;;2.72;0.77;;;;;;;9.43;100.00;98690.31;4971182;28;20038;-93
2022/09/18 01:04:38;;;;;;;6.03;0.73;;;;;;;9.65;100.00;98698.88;4968748;28;20022;-93
2022/09/18 01:07:44;;;;;;;3.95;0.70;;;;;;;9.35;100.00;98699.91;4953858;28;20061;-92
2022/09/18 01:10:44;;;;;;;3.67;0.93;;;;;;;9.28;100.00;98690.41;4969737;28;20042;-92
2022/09/18 01:13:23;;;;;;;2.08;0.60;;;;;;;9.26;100.00;98679.16;4955030;28;20886;-92
2022/09/18 01:16:19;;;;;;;2.08;0.65;;;;;;;9.33;100.00;98692.13;4944174;28;20483;-93
2022/09/18 01:19:39;;;;;;;3.47;0.80;;;;;;;9.39;100.00;98696.41;4960091;28;20071;-94
2022/09/18 01:22:39;;;;;;;2.70;0.70;;;;;;;9.28;100.00;98691.25;4893552;29;20165;-94
2022/09/18 01:25:13;;;;;;;2.47;0.65;;;;;;;9.30;100.00;98686.94;4893253;29;20028;-93
2022/09/18 01:27:50;;;;;;;2.47;0.70;;;;;;;9.48;100.00;98685.13;4894706;29;20044;-92
2022/09/18 01:30:18;;;;;;;2.30;0.70;;;;;;;9.58;100.00;98681.56;4877039;29;20047;-94
2022/09/18 01:33:02;;;;;;;2.63;0.60;;;;;;;9.53;100.00;98686.81;4894424;29;20076;-94
2022/09/18 01:35:38;;;;;;;3.35;0.65;;;;;;;9.64;100.00;98681.50;4890246;29;20037;-93
2022/09/18 01:38:15;;;;;;;1.88;0.50;;;;;;;9.45;100.00;98680.78;4878332;29;20028;-92
2022/09/18 01:40:50;;;;;;;1.23;0.40;;;;;;;9.48;100.00;98677.31;4894501;29;20103;-93
2022/09/18 01:43:20;;;;;;;2.95;0.60;;;;;;;9.48;100.00;98677.31;4914673;29;20136;-94
2022/09/18 01:45:48;;;;;;;3.97;0.70;;;;;;;9.56;100.00;98678.97;4908792;29;20029;-93
2022/09/18 01:48:29;;;;;;;2.00;0.60;;;;;;;9.49;100.00;98677.28;4897561;29;20123;-92
2022/09/18 01:51:19;;;;;;;4.38;0.68;;;;;;;9.41;100.00;98666.06;4878242;29;20048;-93
2022/09/18 01:54:01;;;;;;;1.30;0.50;;;;;;;9.20;100.00;98664.44;4888324;29;20032;-93
2022/09/18 01:56:37;;;;;;;2.15;0.50;;;;;;;8.98;100.00;98661.94;4961588;28;20496;-94
2022/09/18 01:59:10;;;;;;;2.85;0.70;;;;;;;9.10;100.00;98678.34;4954808;28;20039;-92
2022/09/18 02:01:39;;;;;;;1.58;0.47;;;;;;;9.13;100.00;98676.63;4988992;23;20046;-93
2022/09/18 02:04:12;;;;;;;2.70;0.50;;;;;;;9.12;100.00;98663.63;4981035;28;20049;-93
2022/09/18 02:06:48;;;;;;;1.45;0.52;;;;;;;9.03;100.00;98660.19;4989468;28;20430;-93
2022/09/18 02:09:13;;;;;;;1.98;0.50;;;;;;;9.00;100.00;98656.72;4987173;28;20030;-94
2022/09/18 02:11:46;;;;;;;2.15;0.57;;;;;;;8.84;100.00;98661.13;4994972;28;20621;-93
2022/09/18 02:14:22;;;;;;;3.55;0.82;;;;;;;9.03;100.00;98656.69;4997307;28;20034;-93
2022/09/18 02:16:57;;;;;;;1.67;0.50;;;;;;;8.94;100.00;98656.75;4991631;28;20041;-94
2022/09/18 02:19:35;;;;;;;3.65;0.60;;;;;;;8.86;100.00;98646.38;4986760;28;20113;-94
2022/09/18 02:22:05;;;;;;;3.03;0.70;;;;;;;9.15;100.00;98651.44;4989408;28;20104;-93
2022/09/18 02:24:35;;;;;;;2.95;0.60;;;;;;;9.08;100.00;98652.34;4982105;28;20394;-93
2022/09/18 02:27:03;;;;;;;2.65;0.63;;;;;;;8.99;100.00;98647.19;4989905;28;20079;-94
2022/09/18 02:29:31;;;;;;;3.05;0.70;;;;;;;8.95;100.00;98648.94;4994484;28;20026;-94
2022/09/18 02:31:59;;;;;;;1.45;0.50;;;;;;;8.86;100.00;98643.78;5008384;28;20034;-94
2022/09/18 02:34:25;;;;;;;4.68;0.70;;;;;;;8.96;100.00;98637.69;4987579;28;20038;-94
2022/09/18 02:36:54;;;;;;;2.08;0.50;;;;;;;8.87;100.00;98635.97;4989452;28;20026;-94
2022/09/18 02:40:02;;;;;;;3.35;0.65;;;;;;;8.98;100.00;98638.53;5006465;28;20053;-92
2022/09/18 02:42:54;;;;;;;3.83;0.80;;;;;;;8.85;100.00;98637.72;5026589;28;20039;-94
2022/09/18 02:45:47;;;;;;;3.13;0.70;;;;;;;9.12;100.00;98635.84;4993076;28;20026;-92
2022/09/18 02:48:46;;;;;;;2.38;0.60;;;;;;;9.20;100.00;98623.66;4990617;28;20046;-92
2022/09/18 02:51:43;;;;;;;1.95;0.50;;;;;;;9.18;100.00;98634.94;5012158;28;20035;-92
2022/09/18 02:54:29;;;;;;;4.10;0.68;;;;;;;9.31;100.00;98626.22;4998498;28;20035;-92
2022/09/18 02:57:13;;;;;;;4.68;0.68;;;;;;;9.17;100.00;98635.81;4986780;28;20034;-93
2022/09/18 02:59:45;;;;;;;1.73;0.50;;;;;;;9.08;100.00;98615.94;4992394;28;20026;-92
2022/09/18 03:02:11;;;;;;;3.50;0.63;;;;;;;9.16;100.00;98621.09;4988971;28;20101;-92
2022/09/18 03:04:39;;;;;;;1.38;0.40;;;;;;;9.08;100.00;98622.88;4973251;28;20088;-94
2022/09/18 03:07:05;;;;;;;2.50;0.60;;;;;;;9.22;100.00;98613.25;4987710;28;20045;-92
2022/09/18 03:09:33;;;;;;;3.03;0.50;;;;;;;9.34;100.00;98620.97;4984067;28;20030;-92
2022/09/18 03:12:01;;;;;;;3.03;0.60;;;;;;;9.33;100.00;98610.59;4990715;28;20092;-93
2022/09/18 03:14:26;;;;;;;2.67;0.55;;;;;;;9.43;100.00;98616.59;4989158;28;20022;-94
2022/09/18 03:16:52;;;;;;;4.38;0.80;;;;;;;9.45;100.00;98600.09;4992039;28;20772;-93
2022/09/18 03:19:18;;;;;;;3.05;0.65;;;;;;;9.34;100.00;98604.50;5005958;28;20027;-93
2022/09/18 03:21:44;;;;;;;2.30;0.70;;;;;;;9.67;100.00;98605.13;5005046;28;20042;-93
2022/09/18 03:24:10;;;;;;;1.85;0.52;;;;;;;9.71;100.00;98601.63;4988241;28;20097;-91
2022/09/18 03:26:35;;;;;;;2.08;0.47;;;;;;;9.78;100.00;98600.69;4990583;28;20128;-92
2022/09/18 03:29:01;;;;;;;1.90;0.50;;;;;;;9.68;100.00;98605.09;4990098;28;20066;-94
2022/09/18 03:31:26;;;;;;;2.50;0.50;;;;;;;9.70;100.00;98598.16;4990618;28;20478;-95
2022/09/18 03:33:51;;;;;;;2.72;0.70;;;;;;;9.83;100.00;98598.06;4989509;28;20022;-92
2022/09/18 03:36:17;;;;;;;1.45;0.60;;;;;;;9.72;100.00;98601.59;5003538;28;20026;-93
2022/09/18 03:38:42;;;;;;;3.00;0.70;;;;;;;9.84;100.00;98597.16;4985082;28;20466;-92
2022/09/18 03:41:07;;;;;;;3.35;0.60;;;;;;;9.68;100.00;98596.44;4993297;28;20034;-92
2022/09/18 03:43:33;;;;;;;2.63;0.68;;;;;;;9.52;100.00;98603.50;4987305;28;20023;-93
2022/09/18 03:45:59;;;;;;;5.18;0.80;;;;;;;9.59;100.00;98601.72;4991994;28;20037;-92
2022/09/18 03:48:25;;;;;;;3.70;0.57;;;;;;;9.59;100.00;98591.28;4993645;28;20026;-93
2022/09/18 03:50:50;;;;;;;3.28;0.80;;;;;;;9.55;100.00;98588.72;4989717;28;20397;-91
2022/09/18 03:53:16;;;;;;;2.03;0.57;;;;;;;9.65;100.00;98591.28;4989040;28;20041;-91
2022/09/18 03:55:45;;;;;;;3.30;0.80;;;;;;;9.68;100.00;98588.63;4989542;28;20422;-91
2022/09/18 03:58:12;;;;;;;2.15;0.47;;;;;;;9.81;100.00;98590.28;4985282;28;20033;-92
2022/09/18 04:00:37;;;;;;;1.67;0.60;;;;;;;9.75;100.00;98600.72;4991884;28;20554;-92
2022/09/18 04:03:03;;;;;;;2.30;0.60;;;;;;;9.90;100.00;98594.53;4988236;28;20030;-90
2022/09/18 04:05:28;;;;;;;2.13;0.50;;;;;;;9.86;100.00;98590.22;4989547;28;20706;-91
2022/09/18 04:07:53;;;;;;;2.05;0.60;;;;;;;9.94;100.00;98595.34;4990916;28;20089;-91
2022/09/18 04:10:19;;;;;;;2.70;0.50;;;;;;;9.84;100.00;98595.44;4990406;28;20549;-91
2022/09/18 04:12:46;;;;;;;2.60;0.50;;;;;;;9.67;100.00;98597.31;4990509;28;20113;-92
2022/09/18 04:15:14;;;;;;;1.48;0.47;;;;;;;9.74;100.00;98594.66;4989098;28;20101;-94
2022/09/18 04:17:40;;;;;;;3.58;0.55;;;;;;;9.78;100.00;98590.28;4987924;28;20646;-90
2022/09/18 04:20:07;;;;;;;2.75;0.50;;;;;;;9.79;100.00;98586.78;4986350;28;20030;-90
2022/09/18 04:22:32;;;;;;;1.63;0.40;;;;;;;9.88;100.00;98588.44;4991512;28;20033;-91
2022/09/18 04:24:58;;;;;;;2.15;0.73;;;;;;;9.80;100.00;98582.44;4989374;28;20034;-90
2022/09/18 04:27:23;;;;;;;2.08;0.57;;;;;;;9.67;100.00;98585.19;4998983;28;20081;-92
2022/09/18 04:29:49;;;;;;;0.98;0.40;;;;;;;9.60;100.00;98580.03;5014072;28;20033;-91
2022/09/18 04:32:14;;;;;;;2.47;0.60;;;;;;;9.64;100.00;98582.56;4998909;28;20044;-94
2022/09/18 04:34:39;;;;;;;3.63;0.50;;;;;;;9.70;100.00;98592.06;4989087;28;20033;-94
2022/09/18 04:37:05;;;;;;;2.47;0.50;;;;;;;9.68;100.00;98589.47;4990235;28;20061;-92
2022/09/18 04:39:31;;;;;;;1.40;0.40;;;;;;;9.83;100.00;98578.09;4990464;28;20130;-92
2022/09/18 04:41:58;;;;;;;3.55;0.82;;;;;;;9.77;100.00;98593.78;4989364;28;20030;-92
2022/09/18 04:44:24;;;;;;;1.30;0.43;;;;;;;9.77;100.00;98591.16;4989797;28;20037;-92
2022/09/18 04:46:49;;;;;;;1.95;0.40;;;;;;;9.68;100.00;98589.47;4988151;28;20041;-93
2022/09/18 04:49:15;;;;;;;1.52;0.47;;;;;;;9.76;100.00;98588.59;4988943;28;20038;-92
2022/09/18 04:51:40;;;;;;;1.13;0.43;;;;;;;9.81;100.00;98600.69;4982365;28;20585;-91
2022/09/18 04:54:06;;;;;;;4.55;0.52;;;;;;;9.66;100.00;98599.06;4989534;28;20069;-91
2022/09/18 04:56:31;;;;;;;1.30;0.40;;;;;;;9.68;100.00;98599.03;5025200;28;20030;-92
2022/09/18 04:58:58;;;;;;;2.50;0.60;;;;;;;9.63;100.00;98596.50;5007034;28;20038;-91
2022/09/18 05:01:24;;;;;;;2.42;0.55;;;;;;;9.97;100.00;98598.78;4988499;28;20453;-91
2022/09/18 05:03:50;;;;;;;2.97;0.57;;;;;;;9.46;100.00;98599.19;4993891;28;20030;-91
2022/09/18 05:06:15;;;;;;;3.03;0.57;;;;;;;10.05;100.00;98590.91;4998424;28;20044;-91
2022/09/18 05:08:48;;;;;;;3.17;0.50;;;;;;;9.88;100.00;98604.06;5016112;28;20026;-92
2022/09/18 05:11:13;;;;;;;2.17;0.40;;;;;;;9.89;100.00;98603.22;5002827;28;20034;-92
2022/09/18 05:17:00;;;;;;;3.15;0.60;;;;;;;9.69;100.00;98596.44;4995865;28;20092;-93
2022/09/18 05:19:26;;;;;;;1.42;0.45;;;;;;;9.93;100.00;98599.69;4992726;28;20026;-91
2022/09/18 05:22:05;;;;;;;1.95;0.40;;;;;;;9.96;100.00;98586.63;4996087;28;20054;-95
2022/09/18 05:24:43;;;;;;;1.95;0.55;;;;;;;9.98;100.00;98578.81;4990064;28;20120;-92
2022/09/18 05:27:08;;;;;;;2.65;0.50;;;;;;;10.04;100.00;98581.38;4994917;28;20034;-90
2022/09/18 05:29:34;;;;;;;2.08;0.40;;;;;;;9.99;100.00;98568.41;4992779;28;20031;-91
2022/09/18 05:32:02;;;;;;;2.58;0.50;;;;;;;10.00;100.00;98574.47;4993537;28;20018;-92
2022/09/18 05:34:27;;;;;;;4.30;0.70;;;;;;;10.13;100.00;98565.66;4987844;28;20037;-93
2022/09/18 05:36:52;;;;;;;6.25;0.70;;;;;;;9.66;100.00;98565.22;4992753;28;20029;-93
2022/09/18 05:39:18;;;;;;;2.20;0.52;;;;;;;9.82;100.00;98576.34;4992956;28;20041;-91
2022/09/18 05:41:48;;;;;;;2.55;0.57;;;;;;;9.74;100.00;98575.53;4990771;28;20389;-92
2022/09/18 05:44:14;;;;;;;2.28;0.55;;;;;;;10.24;100.00;98578.53;4991678;28;20034;-92
2022/09/18 05:46:39;;;;;;;3.03;0.70;;;;;;;10.22;100.00;98573.34;4993128;28;20038;-93
2022/09/18 05:49:05;;;;;;;4.05;0.80;;;;;;;10.22;100.00;98581.16;4993813;28;20121;-90
2022/09/18 05:51:30;;;;;;;4.22;0.60;;;;;;;10.29;100.00;98597.63;4992002;28;20110;-92
2022/09/18 05:53:56;;;;;;;1.83;0.45;;;;;;;9.87;100.00;98597.16;4993623;28;20105;-93
2022/09/18 05:56:21;;;;;;;4.95;0.82;;;;;;;10.33;100.00;98590.63;4992066;28;20430;-92
2022/09/18 05:58:47;;;;;;;1.77;0.43;;;;;;;10.29;100.00;98602.81;4993942;28;20105;-91
2022/09/18 06:01:13;;;;;;;3.83;0.60;;;;;;;10.20;100.00;98597.69;4995920;28;20046;-91
2022/09/18 06:03:38;;;;;;;3.53;0.57;;;;;;;10.18;100.00;98605.53;4993180;28;20042;-91
2022/09/18 06:06:04;;;;;;;3.58;0.73;;;;;;;10.31;100.00;98598.44;4991737;28;20088;-92
2022/09/18 06:08:29;;;;;;;3.85;0.80;;;;;;;10.13;100.00;98594.31;4993519;28;20089;-90
2022/09/18 06:11:07;;;;;;;2.97;1.13;;;;;;;10.12;100.00;98595.19;4991769;28;20062;-94
2022/09/18 06:13:33;;;;;;;6.05;0.88;;;;;;;10.12;100.00;98587.38;4988567;28;20125;-89
2022/09/18 06:16:14;;;;;;;4.93;0.85;;;;;;;10.16;100.00;98583.84;4991745;28;20105;-91
2022/09/18 06:18:40;;;;;;;2.40;0.65;;;;;;;10.11;100.00;98601.28;4990830;28;20053;-92
2022/09/18 06:21:06;;;;;;;3.92;0.73;;;;;;;9.99;100.00;98588.34;4991809;28;20121;-89
2022/09/18 06:23:37;;;;;;;2.30;0.60;;;;;;;9.98;100.00;98591.84;4993235;28;20030;-92
2022/09/18 06:26:05;;;;;;;2.40;0.70;;;;;;;10.40;100.00;98602.75;4992654;28;20464;-92
2022/09/18 06:28:33;;;;;;;3.38;0.80;;;;;;;10.40;100.00;98605.34;4991355;28;20121;-94
2022/09/18 06:31:04;;;;;;;10.02;1.08;;;;;;;10.54;100.00;98592.16;4985779;28;20062;-94
2022/09/18 06:33:31;;;;;;;6.55;0.80;;;;;;;10.54;100.00;98595.63;4985777;28;20049;-93
2022/09/18 06:36:19;;;;;;;5.57;0.95;;;;;;;10.55;100.00;98605.19;4985736;28;20121;-95
2022/09/18 06:38:48;;;;;;;2.67;0.68;;;;;;;10.52;100.00;98586.97;4991036;28;20037;-91
2022/09/18 06:41:14;;;;;;;4.00;0.77;;;;;;;10.54;100.00;98587.81;4990373;28;20022;-93
2022/09/18 06:43:42;;;;;;;3.28;0.80;;;;;;;10.49;100.00;98593.97;4992026;28;20088;-93
2022/09/18 06:46:09;;;;;;;3.13;0.77;;;;;;;10.47;100.00;98580.94;4988795;28;20030;-92
2022/09/18 06:48:36;;;;;;;6.25;1.00;;;;;;;10.63;100.00;98576.41;4988773;28;20092;-92
2022/09/18 06:51:01;;;;;;;4.97;1.10;;;;;;;10.60;100.00;98581.66;4988875;28;20109;-93
2022/09/18 06:53:27;;;;;;;4.55;0.90;;;;;;;10.70;100.00;98588.50;4990722;28;20113;-91
2022/09/18 06:55:58;;;;;;;4.78;0.88;;;;;;;10.63;100.00;98586.81;4985706;28;20054;-91
2022/09/18 06:58:24;;;;;;;3.22;0.80;;;;;;;10.71;100.00;98584.13;4991752;28;20034;-91
2022/09/18 07:00:53;;;;;;;4.43;1.13;;;;;;;10.75;100.00;98583.22;4988940;28;20054;-94
2022/09/18 07:03:33;;;;;;;5.32;0.93;;;;;;;10.85;100.00;98587.44;5005014;28;20037;-92
2022/09/18 07:05:59;;;;;;;4.05;1.25;;;;;;;10.90;100.00;98590.00;4990284;28;20026;-92
2022/09/18 07:08:24;;;;;;;4.28;0.85;;;;;;;10.89;100.00;98593.47;4990656;28;20737;-92
2022/09/18 07:10:59;;;;;;;5.13;0.90;;;;;;;10.85;100.00;98597.00;5003039;28;20050;-93
2022/09/18 07:13:32;;;;;;;6.28;0.90;;;;;;;11.09;100.00;98591.47;5025521;28;20026;-91
2022/09/18 07:15:58;;;;;;;;;;;;;;;11.06;100.00;98599.34;5005493;28;20049;-90
2022/09/18 07:18:23;;;;;;;4.22;0.88;;;;;;;10.87;100.00;98595.22;4993281;28;19918;-90
2022/09/18 07:20:50;;;;;;;3.60;0.80;;;;;;;11.02;100.00;98591.56;4990546;28;20049;-93
2022/09/18 07:23:28;;;;;;;4.78;1.08;;;;;;;11.07;100.00;98588.00;5008458;28;20077;-91
2022/09/18 07:26:05;;;;;;;6.60;1.20;;;;;;;11.24;100.00;98587.75;5013159;28;20029;-93
2022/09/18 07:28:51;;;;;;;5.05;0.80;;;;;;;11.30;100.00;98593.78;4990641;28;20031;-92
2022/09/18 07:31:17;;;;;;;4.53;1.00;;;;;;;11.35;100.00;98585.00;4996156;28;20091;-93
2022/09/18 07:33:43;;;;;;;3.05;0.82;;;;;;;11.56;100.00;98589.03;4991198;28;20113;-91
2022/09/18 07:36:08;;;;;;;4.55;0.95;;;;;;;11.65;100.00;98597.59;4988460;28;20034;-91
2022/09/18 07:38:34;;;;;;;8.38;1.35;;;;;;;11.68;100.00;98608.88;4986082;28;20499;-92
2022/09/18 07:41:03;;;;;;;4.95;0.82;;;;;;;11.42;100.00;98598.81;4992491;28;20379;-92
2022/09/18 08:38:05;;;;;;;4.18;1.10;;;;;;;13.01;100.00;98631.75;5035841;23;20061;-92
2022/09/18 08:40:55;;;;;;;3.22;0.90;;;;;;;13.13;100.00;98642.81;4998011;28;20108;-91
2022/09/18 08:44:07;;;;;;;2.22;0.73;;;;;;;13.26;100.00;98643.44;5010069;28;20036;-92
2022/09/18 08:46:39;;;;;;;3.47;0.80;;;;;;;13.46;100.00;98642.19;4998183;28;20405;-91
2022/09/18 08:49:34;;;;;;;3.50;0.85;;;;;;;13.50;100.00;98649.06;5005261;28;20091;-94
2022/09/18 08:52:37;;;;;;;2.20;0.60;;;;;;;13.17;100.00;98666.34;5002407;28;20073;-95
2022/09/18 08:55:41;;;;;;;4.15;0.85;;;;;;;13.19;100.00;98654.94;4998527;28;20057;-94
2022/09/18 08:58:19;;;;;;;3.40;0.70;;;;;;;13.22;100.00;98636.56;4999598;28;20029;-95
2022/09/18 09:00:58;;;;;;;6.88;0.70;;;;;;;13.30;100.00;98654.69;4994353;28;20034;-94
2022/09/18 09:04:06;;;;;;;4.18;0.80;;;;;;;13.61;100.00;98654.94;5002494;28;20038;-95
2022/09/18 09:07:12;;;;;;;5.85;1.00;;;;;;;13.96;100.00;98653.22;5013695;28;20022;-95
2022/09/18 09:09:47;;;;;;;4.13;0.80;;;;;;;13.62;100.00;98650.53;5001003;28;20080;-95
2022/09/18 09:16:10;;;;;;;2.90;0.70;;;;;;;14.02;100.00;98672.31;5011525;28;20038;-94
2022/09/18 09:19:31;;;;;;;7.00;1.20;;;;;;;14.20;100.00;98660.53;5001864;28;20069;-94
2022/09/18 09:25:45;;;;;;;4.00;0.70;;;;;;;14.11;100.00;98664.22;5009507;28;20041;-94
2022/09/18 09:28:38;;;;;;;2.33;0.65;;;;;;;13.97;100.00;98660.19;5001504;28;20038;-96
2022/09/18 09:31:32;;;;;;;3.03;0.87;;;;;;;14.00;100.00;98672.34;4987652;28;20042;-94
2022/09/18 09:34:42;;;;;;;;;;;;;;;;;;;;;
2022/09/18 09:37:44;;;;;;;4.03;0.77;;;;;;;13.90;100.00;98663.84;4918972;29;20520;-94
2022/09/18 09:40:53;;;;;;;5.47;1.48;;;;;;;13.87;100.00;98695.38;4918001;29;20146;-94
2022/09/18 09:43:44;;;;;;;4.18;0.80;;;;;;;13.99;100.00;98655.75;4905815;29;20039;-95
2022/09/18 09:46:59;;;;;;;4.43;0.77;;;;;;;14.19;100.00;98675.38;4940326;29;20047;-94
2022/09/18 09:50:16;;;;;;;2.95;0.90;;;;;;;14.07;100.00;98678.31;4912358;29;20500;-95
2022/09/18 09:54:06;;;;;;;4.10;0.77;;;;;;;14.12;100.00;98661.56;4902321;29;20040;-96
2022/09/18 09:56:42;;;;;;;4.30;0.65;;;;;;;13.85;100.00;98668.34;4909504;29;20040;-95
2022/09/18 10:00:06;;;;;;;2.92;0.85;;;;;;;13.97;100.00;98660.19;4894877;29;20083;-92
2022/09/18 10:02:40;;;;;;;5.07;1.05;;;;;;;14.23;100.00;98681.41;4874011;29;20033;-95
2022/09/18 10:09:03;;;;;;;2.60;0.70;;;;;;;14.15;100.00;98679.84;4904021;29;20125;-94
2022/09/18 10:12:26;;;;;;;4.22;0.70;;;;;;;13.90;100.00;98684.81;4896926;29;20508;-93
2022/09/18 10:15:36;;;;;;;3.15;0.93;;;;;;;14.15;100.00;98684.22;4874937;29;20047;-94
2022/09/18 10:18:38;;;;;;;3.72;0.70;;;;;;;14.32;100.00;98687.28;4923336;29;20036;-95
2022/09/18 10:21:37;;;;;;;4.30;0.73;;;;;;;14.30;100.00;98699.56;4913083;29;20499;-95
2022/09/18 10:24:24;;;;;;;3.15;0.60;;;;;;;14.47;100.00;98682.53;4900834;29;20039;-95
2022/09/18 10:27:42;;;;;;;3.92;0.70;;;;;;;14.43;100.00;98680.91;4917659;29;20036;-94
2022/09/18 10:30:20;;;;;;;3.15;0.60;;;;;;;14.43;100.00;98683.53;4875666;29;20147;-92
2022/09/18 10:33:35;;;;;;;3.60;0.80;;;;;;;14.94;100.00;98690.09;4938300;28;20081;-93
2022/09/18 10:36:51;;;;;;;1.83;0.43;;;;;;;14.96;100.00;98697.00;4950765;28;20049;-94
2022/09/18 10:39:36;;;;;;;2.08;0.57;;;;;;;14.77;100.00;98687.94;4965021;28;20102;-95
2022/09/18 10:42:29;;;;;;;3.72;0.60;;;;;;;14.76;100.00;98696.69;4964147;28;20050;-94
2022/09/18 10:45:36;;;;;;;2.70;0.60;;;;;;;14.68;100.00;98694.25;4940040;28;20121;-94
2022/09/18 10:48:19;;;;;;;2.80;0.40;;;;;;;14.78;100.00;98710.63;4965118;28;20045;-93
2022/09/18 10:51:04;;;;;;;3.17;0.88;;;;;;;14.86;100.00;98711.28;4949456;28;20031;-93
2022/09/18 10:53:43;;;;;;;3.55;0.70;;;;;;;15.13;100.00;98714.06;4961472;28;20047;-94
2022/09/18 10:56:27;;;;;;;3.58;0.60;;;;;;;14.90;100.00;98710.28;4946024;28;20517;-93
2022/09/18 10:59:11;;;;;;;3.67;0.95;;;;;;;14.54;100.00;98707.72;4966499;28;20067;-95
2022/09/18 11:01:50;;;;;;;8.52;2.20;;;;;;;14.86;100.00;98719.16;4952090;28;20066;-96
2022/09/18 11:04:30;;;;;;;2.70;0.60;;;;;;;14.72;100.00;98703.78;4951630;28;20043;-94
2022/09/18 11:06:58;;;;;;;3.45;0.60;;;;;;;15.06;100.00;98704.63;5007466;28;20610;-92
2022/09/18 11:09:49;;;;;;;1.77;0.47;;;;;;;14.75;100.00;98716.84;4989480;28;20046;-93
2022/09/18 11:12:29;;;;;;;2.88;0.50;;;;;;;14.71;100.00;98706.44;4992261;28;20351;-93
2022/09/18 11:15:16;;;;;;;1.95;0.50;;;;;;;14.85;100.00;98712.22;4986515;28;20050;-93
2022/09/18 11:18:04;;;;;;;2.08;0.52;;;;;;;14.64;100.00;98711.88;5001774;28;20636;-94
2022/09/18 11:20:39;;;;;;;2.47;0.50;;;;;;;14.72;100.00;98723.94;5006012;28;20104;-93
2022/09/18 11:23:17;;;;;;;2.60;0.55;;;;;;;14.92;100.00;98728.63;5000918;28;20034;-94
2022/09/18 11:26:12;;;;;;;3.78;0.68;;;;;;;14.91;100.00;98724.31;4987558;28;20042;-95
2022/09/18 11:29:08;;;;;;;3.15;0.60;;;;;;;14.94;100.00;98727.69;4992060;28;20076;-93
2022/09/18 11:31:51;;;;;;;3.75;0.68;;;;;;;14.83;100.00;98717.47;5011102;28;20037;-93
2022/09/18 11:34:23;;;;;;;;;;;;;;;14.84;100.00;98728.84;4994222;28;20041;-94
2022/09/18 11:37:00;;;;;;;2.40;0.40;;;;;;;15.04;100.00;98716.94;4992150;28;19953;-92
2022/09/18 11:40:07;;;;;;;2.05;0.50;;;;;;;14.70;100.00;98720.47;5005021;28;20027;-94
2022/09/18 11:42:48;;;;;;;3.08;0.60;;;;;;;14.85;100.00;98733.22;4990200;28;20042;-94
2022/09/18 11:45:43;;;;;;;1.55;0.50;;;;;;;14.94;100.00;98743.44;5008328;28;20038;-95
2022/09/18 11:48:15;;;;;;;2.13;0.68;;;;;;;15.26;100.00;98740.84;5019359;28;20517;-95
2022/09/18 11:51:13;;;;;;;3.83;0.57;;;;;;;15.15;100.00;98728.00;5011765;28;20243;-95
2022/09/18 11:53:50;;;;;;;2.28;0.55;;;;;;;14.72;100.00;98751.03;4991913;28;20030;-95
2022/09/18 11:56:44;;;;;;;2.40;0.60;;;;;;;14.85;100.00;98736.69;5016099;28;20029;-94
2022/09/18 11:59:27;;;;;;;2.63;0.82;;;;;;;15.08;100.00;98750.94;5021902;28;20045;-94
2022/09/18 12:02:13;;;;;;;2.28;0.50;;;;;;;15.80;100.00;98739.31;4998634;28;20034;-93
2022/09/18 12:05:00;;;;;;;1.50;0.40;;;;;;;15.40;100.00;98740.44;4997297;28;20034;-95
2022/09/18 12:07:54;;;;;;;2.95;0.50;;;;;;;15.01;100.00;98759.91;4996163;28;20044;-95
2022/09/18 12:10:41;;;;;;;3.03;0.60;;;;;;;14.76;100.00;98755.31;4995248;28;20033;-95
2022/09/18 12:13:33;;;;;;;2.40;0.57;;;;;;;15.00;100.00;98753.81;4996063;28;20091;-94
2022/09/18 12:16:19;;;;;;;4.03;0.60;;;;;;;14.92;100.00;98742.66;5011217;28;20058;-94
2022/09/18 12:19:19;;;;;;;2.92;0.60;;;;;;;15.40;100.00;98750.97;4997282;28;20037;-93
2022/09/18 12:22:23;;;;;;;2.10;0.55;;;;;;;15.54;100.00;98754.03;4998779;28;20149;-94
2022/09/18 12:25:01;;;;;;;1.90;0.50;;;;;;;15.24;100.00;98748.78;4998412;28;20085;-95
2022/09/18 12:27:37;;;;;;;3.38;0.60;;;;;;;15.52;100.00;98740.09;5015528;28;20030;-93
2022/09/18 12:30:12;;;;;;;3.05;0.60;;;;;;;15.21;100.00;98748.00;5014510;28;20117;-94
2022/09/18 12:32:59;;;;;;;2.30;0.52;;;;;;;15.90;100.00;98750.41;4997475;28;20025;-94
2022/09/18 12:35:42;;;;;;;1.60;0.50;;;;;;;15.62;100.00;98767.81;5016156;28;20133;-94
2022/09/18 12:38:30;;;;;;;2.15;0.50;;;;;;;15.50;100.00;98749.78;4999088;28;20092;-94
2022/09/18 12:41:14;;;;;;;2.22;0.60;;;;;;;15.43;100.00;98774.53;4998198;28;20040;-94
2022/09/18 12:44:04;;;;;;;3.72;0.70;;;;;;;15.38;100.00;98756.25;4999656;28;20061;-94
2022/09/18 12:46:57;;;;;;;2.35;0.50;;;;;;;15.76;100.00;98753.41;4996056;28;20034;-94
2022/09/18 12:49:52;;;;;;;2.10;0.55;;;;;;;16.01;100.00;98750.91;4995477;28;20038;-94
2022/09/18 12:53:04;;;;;;;1.70;0.43;;;;;;;16.16;100.00;98760.97;5015249;28;20042;-93
2022/09/18 12:55:58;;;;;;;2.95;0.70;;;;;;;15.68;100.00;98757.13;4998567;28;21409;-93
2022/09/18 12:58:28;;;;;;;2.42;0.70;;;;;;;16.20;100.00;98749.41;5000528;28;20034;-93
2022/09/18 13:01:01;;;;;;;3.63;0.70;;;;;;;16.59;100.00;98752.56;5000892;28;20041;-92
2022/09/18 13:03:49;;;;;;;2.08;0.60;;;;;;;16.54;100.00;98752.72;5001528;28;20042;-92
2022/09/18 13:06:37;;;;;;;2.20;0.40;;;;;;;15.73;100.00;98764.00;5004644;28;20041;-93
2022/09/18 13:09:31;;;;;;;3.63;0.70;;;;;;;15.55;100.00;98754.91;5001819;28;20462;-91
2022/09/18 13:12:15;;;;;;;2.05;0.57;;;;;;;16.01;100.00;98761.44;5002326;28;20040;-93
2022/09/18 13:15:18;;;;;;;2.75;0.60;;;;;;;16.21;100.00;98782.72;4984193;28;20113;-96
2022/09/18 13:18:19;;;;;;;3.40;0.80;;;;;;;16.00;100.00;98757.94;4984514;28;20070;-94
2022/09/18 13:20:59;;;;;;;3.58;0.88;;;;;;;16.76;100.00;98754.59;5004354;28;20307;-92
2022/09/18 13:23:40;;;;;;;3.03;0.55;;;;;;;16.83;100.00;98750.88;4999814;28;20034;-94
2022/09/18 13:26:13;;;;;;;1.95;0.60;;;;;;;16.59;100.00;98765.72;4993790;28;20066;-92
2022/09/18 13:28:58;;;;;;;3.15;0.70;;;;;;;16.89;100.00;98745.41;4989355;28;20042;-94
2022/09/18 13:31:38;;;;;;;3.60;0.60;;;;;;;16.83;100.00;98754.34;5003759;28;20031;-92